createdAt,value
2019-03-22T00:02:31.875Z,27.87
2019-03-22T00:05:12.751Z,28.60
2019-03-22T00:07:56.395Z,30.72
2019-03-22T00:10:37.654Z,28.67
2019-03-22T00:13:18.128Z,27.07
2019-03-22T00:15:59.018Z,27.32
2019-03-22T00:18:39.712Z,27.70
2019-03-22T00:21:20.213Z,28.42
2019-03-22T00:24:00.903Z,29.75
2019-03-22T00:26:41.787Z,29.45
2019-03-22T00:29:24.698Z,28.87
2019-03-22T00:32:05.578Z,33.08
2019-03-22T00:34:46.178Z,33.28
2019-03-22T00:37:26.717Z,27.27
2019-03-22T00:40:08.064Z,29.12
2019-03-22T00:42:48.628Z,32.67
2019-03-22T00:45:29.265Z,29.52
2019-03-22T00:48:12.227Z,27.60
2019-03-22T00:50:55.947Z,28.25
2019-03-22T00:53:36.568Z,37.75
2019-03-22T00:56:17.219Z,27.87
2019-03-22T00:58:58.118Z,34.75
2019-03-22T01:01:38.926Z,29.00
2019-03-22T01:04:19.573Z,30.23
2019-03-22T01:07:00.088Z,31.37
2019-03-22T01:09:40.879Z,27.87
2019-03-22T01:12:21.402Z,31.57
2019-03-22T01:15:02.341Z,32.93
2019-03-22T01:17:48.450Z,29.55
2019-03-22T01:20:29.318Z,30.43
2019-03-22T01:23:09.826Z,33.20
2019-03-22T01:25:50.745Z,28.12
2019-03-22T01:28:32.874Z,30.75
2019-03-22T01:31:15.809Z,29.40
2019-03-22T01:33:56.728Z,31.05
2019-03-22T01:36:37.840Z,29.07
2019-03-22T01:39:18.589Z,33.63
2019-03-22T01:41:59.446Z,32.03
2019-03-22T01:44:40.278Z,29.20
2019-03-22T01:47:24.591Z,26.97
2019-03-22T01:50:08.571Z,28.00
2019-03-22T01:52:49.333Z,29.85
2019-03-22T01:55:30.194Z,28.20
2019-03-22T01:58:11.026Z,31.57
2019-03-22T02:00:53.278Z,32.05
2019-03-22T02:03:33.957Z,27.77
2019-03-22T02:06:15.664Z,32.42
2019-03-22T02:08:56.698Z,29.42
2019-03-22T02:11:37.611Z,29.12
2019-03-22T02:14:20.732Z,27.27
2019-03-22T02:17:01.312Z,30.68
2019-03-22T02:19:41.806Z,32.67
2019-03-22T02:22:22.774Z,32.58
2019-03-22T02:25:03.504Z,36.42
2019-03-22T02:27:44.512Z,34.35
2019-03-22T02:30:25.145Z,32.93
2019-03-22T02:33:06.036Z,34.73
2019-03-22T02:35:48.341Z,30.35
2019-03-22T02:38:28.917Z,34.53
2019-03-22T02:41:09.693Z,34.27
2019-03-22T02:43:50.350Z,33.13
2019-03-22T02:46:31.036Z,36.73
2019-03-22T02:49:14.144Z,31.35
2019-03-22T02:51:55.064Z,33.85
2019-03-22T02:54:38.166Z,35.20
2019-03-22T02:57:18.819Z,39.10
2019-03-22T03:00:00.533Z,34.03
2019-03-22T03:02:44.039Z,34.10
2019-03-22T03:05:24.578Z,28.65
2019-03-22T03:08:06.724Z,35.70
2019-03-22T03:10:50.511Z,31.57
2019-03-22T03:13:32.417Z,30.62
2019-03-22T03:16:14.761Z,31.10
2019-03-22T03:18:55.646Z,30.52
2019-03-22T03:21:36.404Z,31.12
2019-03-22T03:24:17.270Z,29.75
2019-03-22T03:26:57.916Z,29.02
2019-03-22T03:29:38.476Z,33.10
2019-03-22T03:32:19.581Z,32.58
2019-03-22T03:35:00.478Z,29.30
2019-03-22T03:37:41.993Z,30.30
2019-03-22T03:40:23.223Z,31.35
2019-03-22T03:43:03.950Z,35.30
2019-03-22T03:45:44.616Z,33.75
2019-03-22T03:48:25.555Z,28.25
2019-03-22T03:51:20.221Z,27.40
2019-03-22T03:54:03.559Z,30.12
2019-03-22T03:56:44.408Z,29.52
2019-03-22T03:59:26.195Z,29.23
2019-03-22T04:02:08.219Z,30.95
2019-03-22T04:04:48.886Z,30.35
2019-03-22T04:07:29.907Z,29.12
2019-03-22T04:10:11.048Z,30.55
2019-03-22T04:12:51.642Z,29.95
2019-03-22T04:15:32.476Z,32.17
2019-03-22T04:18:13.268Z,30.27
2019-03-22T04:20:55.603Z,31.12
2019-03-22T04:23:36.474Z,28.75
2019-03-22T04:26:33.941Z,29.20
2019-03-22T04:29:30.942Z,34.78
2019-03-22T04:32:28.779Z,31.85
2019-03-22T04:35:25.190Z,29.70
2019-03-22T04:38:23.778Z,28.62
2019-03-22T04:41:20.974Z,31.87
2019-03-22T04:44:18.202Z,27.22
2019-03-22T04:47:18.970Z,29.65
2019-03-22T04:50:15.877Z,37.38
2019-03-22T04:53:17.495Z,33.05
2019-03-22T04:56:18.209Z,31.77
2019-03-22T04:59:19.623Z,31.48
2019-03-22T05:02:18.070Z,35.05
2019-03-22T05:05:16.253Z,32.88
2019-03-22T05:08:14.891Z,31.20
2019-03-22T05:11:15.287Z,35.05
2019-03-22T05:14:14.197Z,33.35
2019-03-22T05:17:13.243Z,33.30
2019-03-22T05:20:12.480Z,32.45
2019-03-22T05:23:11.489Z,30.97
2019-03-22T05:26:08.743Z,33.50
2019-03-22T05:29:08.317Z,35.40
2019-03-22T05:32:14.793Z,31.37
2019-03-22T05:35:12.338Z,36.08
2019-03-22T05:38:10.221Z,34.25
2019-03-22T05:41:07.742Z,31.17
2019-03-22T05:44:04.790Z,29.55
2019-03-22T05:47:02.406Z,28.05
2019-03-22T05:49:59.034Z,32.48
2019-03-22T05:52:56.197Z,36.20
2019-03-22T05:55:52.830Z,29.70
2019-03-22T05:58:49.303Z,30.50
2019-03-22T06:01:45.962Z,31.45
2019-03-22T06:04:42.689Z,31.45
2019-03-22T06:07:39.946Z,30.00
2019-03-22T06:10:36.597Z,33.98
2019-03-22T06:13:34.052Z,31.65
2019-03-22T06:16:31.472Z,30.65
2019-03-22T06:19:28.243Z,28.02
2019-03-22T06:22:24.720Z,35.05
2019-03-22T06:25:22.385Z,29.25
2019-03-22T06:28:19.106Z,30.32
2019-03-22T06:31:16.318Z,33.38
2019-03-22T06:34:13.518Z,31.23
2019-03-22T06:37:11.866Z,28.42
2019-03-22T06:40:11.399Z,33.08
2019-03-22T06:43:08.667Z,28.12
2019-03-22T06:46:06.008Z,29.60
2019-03-22T06:49:02.837Z,28.87
2019-03-22T06:52:00.297Z,28.67
2019-03-22T06:54:57.124Z,26.07
2019-03-22T06:57:55.803Z,28.85
2019-03-22T07:00:52.401Z,27.30
2019-03-22T07:03:50.641Z,28.23
2019-03-22T07:06:48.877Z,30.85
2019-03-22T07:09:46.641Z,29.90
2019-03-22T07:12:43.943Z,26.00
2019-03-22T07:15:40.880Z,27.40
2019-03-22T07:18:39.313Z,26.23
2019-03-22T07:21:35.661Z,25.43
2019-03-22T07:24:32.276Z,22.80
2019-03-22T07:27:29.609Z,25.50
2019-03-22T07:30:26.381Z,25.10
2019-03-22T07:33:22.550Z,19.00
2019-03-22T07:36:19.391Z,29.13
2019-03-22T07:39:16.483Z,28.43
2019-03-22T07:42:12.762Z,24.07
2019-03-22T07:45:11.343Z,25.73
2019-03-22T07:48:08.523Z,23.43
2019-03-22T07:51:05.114Z,23.83
2019-03-22T07:54:03.676Z,22.53
2019-03-22T07:56:59.391Z,27.70
2019-03-22T07:59:56.459Z,24.63
2019-03-22T08:02:53.577Z,31.10
2019-03-22T08:05:51.500Z,25.90
2019-03-22T08:08:48.854Z,25.80
2019-03-22T08:11:45.756Z,30.63
2019-03-22T08:14:42.359Z,26.17
2019-03-22T08:17:39.885Z,27.10
2019-03-22T08:20:38.601Z,31.17
2019-03-22T08:23:35.358Z,28.33
2019-03-22T08:26:32.396Z,31.53
2019-03-22T08:29:29.409Z,27.03
2019-03-22T08:32:26.765Z,29.60
2019-03-22T08:35:23.286Z,26.33
2019-03-22T08:38:20.635Z,23.40
2019-03-22T08:41:17.124Z,25.57
2019-03-22T08:44:14.392Z,25.90
2019-03-22T08:47:10.962Z,22.70
2019-03-22T08:50:09.240Z,25.27
2019-03-22T08:53:05.677Z,24.10
2019-03-22T08:56:03.016Z,27.93
2019-03-22T08:59:00.553Z,27.17
2019-03-22T09:01:56.553Z,22.73
2019-03-22T09:04:53.752Z,25.37
2019-03-22T09:07:51.064Z,24.23
2019-03-22T09:10:47.936Z,25.87
2019-03-22T09:13:50.245Z,25.77
2019-03-22T09:16:47.443Z,26.10
2019-03-22T09:19:43.926Z,30.47
2019-03-22T09:22:42.008Z,29.53
2019-03-22T09:25:39.329Z,30.73
2019-03-22T09:28:38.645Z,26.33
2019-03-22T09:31:35.216Z,35.47
2019-03-22T09:34:33.867Z,27.03
2019-03-22T09:37:30.855Z,36.40
2019-03-22T09:40:28.056Z,28.87
2019-03-22T09:43:24.327Z,29.53
2019-03-22T09:46:21.630Z,25.53
2019-03-22T09:49:18.116Z,29.20
2019-03-22T09:52:15.627Z,28.83
2019-03-22T09:55:14.180Z,26.80
2019-03-22T09:58:10.102Z,27.53
2019-03-22T10:01:06.829Z,25.57
2019-03-22T10:04:03.796Z,30.30
2019-03-22T10:07:00.739Z,31.50
2019-03-22T10:09:58.457Z,32.03
2019-03-22T10:12:54.791Z,31.30
2019-03-22T10:15:51.025Z,32.03
2019-03-22T10:18:48.572Z,33.37
2019-03-22T10:21:46.315Z,32.47
2019-03-22T10:24:42.407Z,31.57
2019-03-22T10:27:39.892Z,34.17
2019-03-22T10:30:37.311Z,32.47
2019-03-22T10:33:37.608Z,37.17
2019-03-22T10:36:34.752Z,35.07
2019-03-22T10:39:31.754Z,32.90
2019-03-22T10:42:27.941Z,37.87
2019-03-22T10:45:24.063Z,35.00
2019-03-22T10:48:20.805Z,35.80
2019-03-22T10:51:17.783Z,34.63
2019-03-22T10:54:15.580Z,32.53
2019-03-22T10:57:11.738Z,36.93
2019-03-22T11:00:11.773Z,35.20
2019-03-22T11:03:08.792Z,36.57
2019-03-22T11:06:06.112Z,40.23
2019-03-22T11:09:04.574Z,34.20
2019-03-22T11:12:11.749Z,33.13
2019-03-22T11:14:59.757Z,33.10
2019-03-22T11:17:57.026Z,35.07
2019-03-22T11:20:53.132Z,31.40
2019-03-22T11:23:49.706Z,29.03
2019-03-22T11:26:47.257Z,30.53
2019-03-22T11:29:44.404Z,31.33
2019-03-22T11:32:40.730Z,31.60
2019-03-22T11:35:38.222Z,33.37
2019-03-22T11:38:35.681Z,29.43
2019-03-22T11:41:32.294Z,29.63
2019-03-22T11:44:29.527Z,33.03
2019-03-22T11:47:27.107Z,30.63
2019-03-22T11:50:24.468Z,26.63
2019-03-22T11:53:21.767Z,32.43
2019-03-22T11:56:18.920Z,25.80
2019-03-22T11:59:16.052Z,25.10
2019-03-22T12:02:21.966Z,22.90
2019-03-22T12:05:12.342Z,24.87
2019-03-22T12:08:09.669Z,22.40
2019-03-22T12:11:07.966Z,19.43
2019-03-22T12:14:05.680Z,21.53
2019-03-22T12:17:04.064Z,23.57
2019-03-22T12:20:02.168Z,22.10
2019-03-22T12:22:58.562Z,21.87
2019-03-22T12:25:55.774Z,22.70
2019-03-22T12:28:52.457Z,21.40
2019-03-22T12:31:49.602Z,21.80
2019-03-22T12:34:46.892Z,21.70
2019-03-22T12:37:44.222Z,18.17
2019-03-22T12:40:41.358Z,22.90
2019-03-22T12:43:37.634Z,22.00
2019-03-22T12:46:33.959Z,20.90
2019-03-22T12:49:31.984Z,21.63
2019-03-22T12:52:28.825Z,22.70
2019-03-22T12:55:25.470Z,24.50
2019-03-22T12:58:22.645Z,23.63
2019-03-22T13:01:20.105Z,21.50
2019-03-22T13:04:16.419Z,21.93
2019-03-22T13:07:12.937Z,21.17
2019-03-22T13:10:11.548Z,32.83
2019-03-22T13:13:07.857Z,19.97
2019-03-22T13:16:04.087Z,23.20
2019-03-22T13:19:00.981Z,19.70
2019-03-22T13:21:58.065Z,20.20
2019-03-22T13:24:54.261Z,19.50
2019-03-22T13:27:52.801Z,18.30
2019-03-22T13:30:50.385Z,22.97
2019-03-22T13:33:47.907Z,20.37
2019-03-22T13:36:44.631Z,19.67
2019-03-22T13:39:42.034Z,20.60
2019-03-22T13:42:39.052Z,20.93
2019-03-22T13:45:36.730Z,21.17
2019-03-22T13:48:33.916Z,20.83
2019-03-22T13:51:30.913Z,24.07
2019-03-22T13:54:28.456Z,21.67
2019-03-22T13:57:24.854Z,21.73
2019-03-22T14:00:22.781Z,22.47
2019-03-22T14:03:19.361Z,23.07
2019-03-22T14:06:16.889Z,22.33
2019-03-22T14:09:13.637Z,25.80
2019-03-22T14:12:10.944Z,25.63
2019-03-22T14:15:08.864Z,26.87
2019-03-22T14:18:07.320Z,23.83
2019-03-22T14:21:07.440Z,31.17
2019-03-22T14:24:04.784Z,31.43
2019-03-22T14:27:02.172Z,28.77
2019-03-22T14:29:59.021Z,26.80
2019-03-22T14:32:56.346Z,18.93
2019-03-22T14:35:52.636Z,20.17
2019-03-22T14:38:49.483Z,22.67
2019-03-22T14:41:48.131Z,26.47
2019-03-22T14:44:47.671Z,27.57
2019-03-22T14:47:44.066Z,27.83
2019-03-22T14:50:40.640Z,29.03
2019-03-22T14:53:38.118Z,31.13
2019-03-22T14:56:34.946Z,26.13
2019-03-22T14:59:31.815Z,31.10
2019-03-22T15:02:29.460Z,28.70
2019-03-22T15:05:26.538Z,28.13
2019-03-22T15:08:23.573Z,25.87
2019-03-22T15:11:20.435Z,24.80
2019-03-22T15:14:44.738Z,24.40
2019-03-22T15:18:05.466Z,24.27
2019-03-22T15:21:13.271Z,21.83
2019-03-22T15:24:29.474Z,24.23
2019-03-22T15:27:45.605Z,23.73
2019-03-22T15:31:04.286Z,29.73
2019-03-22T15:34:28.734Z,23.07
2019-03-22T15:37:50.464Z,23.07
2019-03-22T15:40:47.883Z,21.77
2019-03-22T15:43:44.846Z,29.57
2019-03-22T15:46:42.406Z,25.33
2019-03-22T15:49:39.593Z,23.17
2019-03-22T15:52:35.982Z,23.60
2019-03-22T15:55:32.465Z,27.90
2019-03-22T15:58:29.026Z,22.70
2019-03-22T16:01:26.843Z,23.40
2019-03-22T16:04:26.152Z,24.93
2019-03-22T16:07:22.055Z,26.10
2019-03-22T16:10:19.596Z,25.03
2019-03-22T16:13:16.478Z,23.23
2019-03-22T16:16:12.904Z,27.07
2019-03-22T16:19:09.209Z,25.87
2019-03-22T16:22:08.638Z,26.20
2019-03-22T16:25:07.569Z,26.93
2019-03-22T16:28:04.743Z,31.40
2019-03-22T16:31:01.164Z,32.50
2019-03-22T16:33:58.628Z,28.67
2019-03-22T16:36:55.129Z,28.00
2019-03-22T16:39:52.417Z,33.77
2019-03-22T16:42:49.382Z,27.77
2019-03-22T16:45:47.112Z,29.80
2019-03-22T16:48:44.235Z,30.23
2019-03-22T16:51:41.347Z,27.17
2019-03-22T16:54:38.938Z,36.17
2019-03-22T16:57:36.241Z,27.87
2019-03-22T17:00:33.920Z,27.97
2019-03-22T17:03:33.044Z,29.87
2019-03-22T17:06:30.266Z,22.43
2019-03-22T17:09:28.232Z,26.97
2019-03-22T17:12:25.739Z,27.43
2019-03-22T17:15:23.188Z,24.77
2019-03-22T17:18:20.385Z,24.10
2019-03-22T17:21:17.913Z,31.10
2019-03-22T17:24:15.371Z,28.00
2019-03-22T17:27:11.695Z,29.30
2019-03-22T17:30:08.638Z,30.73
2019-03-22T17:33:08.002Z,28.20
2019-03-22T17:36:04.653Z,28.83
2019-03-22T17:39:01.126Z,24.70
2019-03-22T17:41:58.448Z,26.77
2019-03-22T17:44:55.019Z,27.93
2019-03-22T17:47:52.615Z,36.33
2019-03-22T17:50:49.139Z,33.03
2019-03-22T17:53:46.272Z,28.50
2019-03-22T17:56:42.990Z,29.07
2019-03-22T17:59:44.251Z,27.27
2019-03-22T18:02:42.099Z,23.30
2019-03-22T18:05:39.171Z,23.90
2019-03-22T18:08:37.257Z,25.17
2019-03-22T18:11:34.415Z,27.73
2019-03-22T18:14:31.596Z,25.07
2019-03-22T18:17:27.973Z,25.47
2019-03-22T18:20:25.415Z,27.03
2019-03-22T18:23:22.744Z,29.40
2019-03-22T18:26:19.023Z,27.90
2019-03-22T18:29:15.555Z,29.07
2019-03-22T18:32:13.251Z,36.97
2019-03-22T18:35:12.486Z,34.17
2019-03-22T18:38:08.635Z,33.50
2019-03-22T18:41:05.919Z,31.85
2019-03-22T18:44:03.145Z,40.98
2019-03-22T18:46:59.427Z,35.77
2019-03-22T18:49:56.662Z,36.20
2019-03-22T18:52:54.090Z,33.97
2019-03-22T18:55:50.859Z,32.30
2019-03-22T18:58:47.702Z,29.40
2019-03-22T19:01:45.369Z,32.23
2019-03-22T19:04:44.286Z,34.95
2019-03-22T19:07:41.291Z,32.93
2019-03-22T19:10:39.026Z,39.35
2019-03-22T19:13:36.472Z,41.15
2019-03-22T19:16:34.895Z,41.20
2019-03-22T19:19:36.153Z,37.88
2019-03-22T19:22:33.679Z,36.55
2019-03-22T19:25:30.706Z,36.42
2019-03-22T19:28:27.763Z,41.15
2019-03-22T19:31:25.606Z,39.63
2019-03-22T19:34:23.215Z,36.80
2019-03-22T19:37:20.984Z,42.55
2019-03-22T19:40:18.366Z,36.80
2019-03-22T19:43:15.472Z,44.25
2019-03-22T19:46:13.291Z,36.03
2019-03-22T19:49:10.930Z,44.98
2019-03-22T19:52:08.534Z,47.00
2019-03-22T19:55:06.821Z,45.98
2019-03-22T19:58:03.691Z,46.73
2019-03-22T20:01:01.024Z,46.60
2019-03-22T20:03:58.085Z,47.30
2019-03-22T20:06:57.089Z,48.87
2019-03-22T20:09:55.150Z,49.40
2019-03-22T20:12:52.893Z,49.42
2019-03-22T20:15:50.882Z,50.43
2019-03-22T20:18:54.919Z,49.48
2019-03-22T20:21:52.871Z,49.95
2019-03-22T20:24:52.468Z,52.20
2019-03-22T20:27:52.639Z,45.90
2019-03-22T20:30:49.642Z,47.67
2019-03-22T20:33:47.096Z,45.25
2019-03-22T20:36:44.993Z,48.68
2019-03-22T20:39:41.910Z,45.45
2019-03-22T20:42:38.667Z,49.58
2019-03-22T20:45:37.383Z,52.48
2019-03-22T20:48:34.891Z,46.20
2019-03-22T20:51:32.616Z,49.23
2019-03-22T20:54:29.820Z,48.42
2019-03-22T20:57:26.432Z,44.77
2019-03-22T21:00:23.890Z,51.58
2019-03-22T21:03:21.662Z,45.43
2019-03-22T21:06:19.073Z,50.38
2019-03-22T21:09:16.834Z,45.98
2019-03-22T21:12:14.876Z,44.40
2019-03-22T21:15:23.579Z,47.53
2019-03-22T21:18:11.464Z,47.75
2019-03-22T21:21:08.710Z,47.35
2019-03-22T21:24:05.721Z,44.08
2019-03-22T21:27:03.548Z,49.60
2019-03-22T21:30:00.773Z,49.50
2019-03-22T21:33:01.783Z,44.48
2019-03-22T21:36:01.063Z,44.53
2019-03-22T21:38:58.533Z,42.35
2019-03-22T21:41:57.598Z,41.15
2019-03-22T21:44:54.470Z,41.15
2019-03-22T21:47:51.686Z,42.53
2019-03-22T21:50:49.171Z,41.40
2019-03-22T21:53:47.065Z,45.70
2019-03-22T21:56:43.933Z,44.27
2019-03-22T21:59:41.147Z,45.98
2019-03-22T22:02:39.558Z,42.70
2019-03-22T22:05:36.216Z,47.65
2019-03-22T22:08:33.718Z,43.63
2019-03-22T22:11:31.548Z,44.75
2019-03-22T22:14:29.282Z,44.00
2019-03-22T22:17:26.703Z,44.95
2019-03-22T22:20:28.874Z,41.42
2019-03-22T22:23:22.870Z,48.68
2019-03-22T22:26:20.825Z,42.10
2019-03-22T22:29:18.005Z,38.35
2019-03-22T22:32:15.787Z,43.40
2019-03-22T22:35:13.627Z,44.90
2019-03-22T22:38:11.170Z,42.13
2019-03-22T22:41:08.891Z,37.73
2019-03-22T22:44:06.627Z,42.65
2019-03-22T22:47:03.986Z,41.70
2019-03-22T22:50:01.591Z,42.23
2019-03-22T22:52:58.529Z,47.00
2019-03-22T22:55:55.473Z,42.55
2019-03-22T22:58:53.177Z,44.53
2019-03-22T23:01:50.646Z,38.98
2019-03-22T23:04:47.602Z,36.48
2019-03-22T23:07:45.503Z,35.83
2019-03-22T23:10:42.848Z,42.60
2019-03-22T23:13:39.980Z,37.45
2019-03-22T23:16:36.725Z,36.08
2019-03-22T23:19:34.223Z,40.50
2019-03-22T23:22:31.944Z,36.05
2019-03-22T23:25:29.611Z,33.73
2019-03-22T23:28:27.257Z,33.70
2019-03-22T23:31:24.037Z,33.63
2019-03-22T23:34:20.739Z,39.30
2019-03-22T23:37:19.307Z,34.43
2019-03-22T23:40:15.909Z,33.23
2019-03-22T23:43:13.619Z,34.40
2019-03-22T23:46:11.160Z,32.00
2019-03-22T23:49:08.833Z,35.48
2019-03-22T23:52:07.799Z,33.88
2019-03-22T23:55:05.649Z,31.70
2019-03-22T23:58:03.220Z,32.60
